Time;durP1;ratioP1;P1;durP2;ratioP2;P2;SDS_P1;SDS_P2;PMS_P1;PMS_P2;Temp;Humidity;BMP_temperature;BMP_pressure;BME280_temperature;BME280_humidity;BME280_pressure;Samples;Min_cycle;Max_cycle;Signal;HPM_P1;HPM_P2
2021/09/27 00:00:45;;;;;;;3.92;2.22;;;;;;;17.41;68.56;93076.63;2054789;69;20225;-73
2021/09/27 00:03:11;;;;;;;6.05;2.50;;;;;;;17.29;69.99;93061.91;2054863;69;20145;-73
2021/09/27 00:05:36;;;;;;;3.42;2.33;;;;;;;17.39;67.44;93064.44;2055132;69;20144;-73
2021/09/27 00:08:03;;;;;;;3.03;2.30;;;;;;;17.35;68.65;93073.53;2054950;69;20130;-73
2021/09/27 00:10:36;;;;;;;4.40;2.53;;;;;;;17.21;70.89;93075.78;2054839;69;20146;-73
2021/09/27 00:13:06;;;;;;;4.78;2.30;;;;;;;17.18;71.09;93066.44;2054947;69;20154;-73
2021/09/27 00:15:38;;;;;;;2.60;2.40;;;;;;;17.31;67.23;93076.19;2054873;69;20145;-73
2021/09/27 00:18:06;;;;;;;2.13;1.93;;;;;;;17.39;65.94;93073.69;2054689;69;20142;-73
2021/09/27 00:20:32;;;;;;;2.45;2.00;;;;;;;17.30;69.59;93074.00;2054631;70;20270;-73
2021/09/27 00:22:59;;;;;;;2.45;1.90;;;;;;;17.25;69.22;93075.94;2054951;69;20255;-74
2021/09/27 00:25:26;;;;;;;2.90;2.28;;;;;;;17.03;70.71;93075.72;2054846;69;20181;-74
2021/09/27 00:27:53;;;;;;;2.10;1.90;;;;;;;17.15;70.08;93069.84;2054851;69;20150;-73
2021/09/27 00:30:24;;;;;;;2.38;1.88;;;;;;;17.16;69.20;93063.50;2054187;69;20145;-74
2021/09/27 00:32:50;;;;;;;2.30;1.90;;;;;;;17.21;69.04;93073.66;2054443;69;20610;-74
2021/09/27 00:35:21;;;;;;;2.25;1.70;;;;;;;17.32;67.69;93069.16;2054864;69;20146;-75
2021/09/27 00:37:48;;;;;;;2.80;2.00;;;;;;;17.08;70.28;93068.09;2054625;69;20130;-73
2021/09/27 00:40:18;;;;;;;3.50;2.15;;;;;;;17.32;67.43;93066.28;2053905;70;20138;-74
2021/09/27 00:42:46;;;;;;;2.85;2.40;;;;;;;17.22;67.17;93066.59;2054593;69;20138;-73
2021/09/27 00:45:14;;;;;;;3.55;2.65;;;;;;;16.84;70.84;93060.00;2054595;69;20603;-74
2021/09/27 00:47:40;;;;;;;3.22;2.50;;;;;;;16.86;71.52;93057.25;2054402;69;20170;-73
2021/09/27 00:50:08;;;;;;;3.13;2.45;;;;;;;16.87;70.21;93061.56;2054658;69;20655;-73
2021/09/27 00:52:35;;;;;;;4.38;2.30;;;;;;;17.02;69.98;93065.72;2054580;69;20663;-74
2021/09/27 00:55:03;;;;;;;2.40;2.20;;;;;;;16.86;70.85;93060.09;2054779;69;20142;-73
2021/09/27 00:57:28;;;;;;;4.32;2.67;;;;;;;16.99;70.77;93061.34;2054915;69;20174;-73
2021/09/27 00:59:56;;;;;;;2.72;2.08;;;;;;;17.01;70.16;93047.94;2054915;69;20146;-74
2021/09/27 01:02:23;;;;;;;4.50;2.30;;;;;;;17.05;69.92;93046.66;2055030;69;20142;-74
2021/09/27 01:04:49;;;;;;;2.72;2.30;;;;;;;16.99;70.29;93049.94;2055017;69;20208;-75
2021/09/27 01:07:27;;;;;;;2.85;2.60;;;;;;;16.60;72.75;93053.94;2054931;69;20150;-74
2021/09/27 01:10:11;;;;;;;3.30;2.60;;;;;;;16.44;73.32;93056.06;2054938;69;20181;-75
2021/09/27 01:12:55;;;;;;;3.58;2.90;;;;;;;16.73;71.91;93055.25;2055045;69;20138;-74
2021/09/27 01:15:40;;;;;;;4.20;2.42;;;;;;;16.78;71.99;93059.75;2055130;69;20153;-74
2021/09/27 01:18:08;;;;;;;3.80;2.70;;;;;;;16.62;72.92;93061.81;2055123;69;20150;-74
2021/09/27 01:20:49;;;;;;;3.75;2.20;;;;;;;16.73;71.48;93055.97;2054931;69;20138;-74
2021/09/27 01:24:07;;;;;;;5.90;2.60;;;;;;;16.85;71.00;93052.19;2054979;69;20146;-74
2021/09/27 01:27:11;;;;;;;3.47;2.58;;;;;;;16.85;69.57;93050.06;2054987;69;20122;-74
2021/09/27 01:29:42;;;;;;;6.00;2.53;;;;;;;16.74;71.69;93048.19;2054965;70;20149;-74
2021/09/27 01:32:29;;;;;;;5.97;2.88;;;;;;;16.63;72.41;93046.25;2055017;69;20154;-74
2021/09/27 01:35:16;;;;;;;3.50;3.00;;;;;;;16.68;71.62;93051.47;2054920;69;20173;-74
2021/09/27 01:38:03;;;;;;;4.10;2.53;;;;;;;16.63;72.66;93049.06;2054959;69;20526;-74
2021/09/27 01:40:36;;;;;;;4.40;2.75;;;;;;;16.61;72.71;93049.00;2054798;69;20182;-74
2021/09/27 01:43:17;;;;;;;5.13;2.90;;;;;;;16.49;72.58;93047.09;2054950;69;20511;-74
2021/09/27 01:45:57;;;;;;;3.50;2.55;;;;;;;16.29;73.40;93051.13;2054903;69;20277;-74
2021/09/27 01:48:34;;;;;;;3.40;2.63;;;;;;;16.58;72.04;93055.97;2054910;69;20214;-74
2021/09/27 01:51:22;;;;;;;4.97;2.58;;;;;;;16.58;72.90;93048.16;2054820;69;20236;-74
2021/09/27 01:54:01;;;;;;;3.60;2.72;;;;;;;16.55;73.12;93043.78;2054814;69;20145;-74
2021/09/27 01:56:34;;;;;;;2.92;2.60;;;;;;;16.64;70.52;93042.03;2055032;69;20149;-75
2021/09/27 01:59:14;;;;;;;4.97;3.60;;;;;;;16.40;72.03;93045.28;2054990;69;20150;-74
2021/09/27 02:02:22;;;;;;;4.22;3.38;;;;;;;16.45;72.28;93049.03;2054883;69;20161;-74
2021/09/27 02:05:12;;;;;;;5.68;3.65;;;;;;;16.43;72.58;93048.91;2053820;70;20160;-74
2021/09/27 02:07:58;;;;;;;4.90;3.60;;;;;;;16.49;72.61;93052.78;2055374;69;20193;-74
2021/09/27 02:10:30;;;;;;;4.25;3.40;;;;;;;16.46;72.37;93056.16;2051545;69;20157;-75
2021/09/27 02:13:08;;;;;;;4.05;3.25;;;;;;;16.31;73.58;93060.50;2055406;69;20162;-74
2021/09/27 02:15:47;;;;;;;6.20;3.22;;;;;;;16.46;72.25;93056.16;2055393;69;20154;-74
2021/09/27 02:18:35;;;;;;;3.22;2.88;;;;;;;16.54;71.01;93059.38;2055494;69;20149;-74
2021/09/27 02:21:13;;;;;;;4.63;3.20;;;;;;;16.48;71.18;93059.09;2055459;69;20153;-75
2021/09/27 02:23:50;;;;;;;4.78;3.20;;;;;;;16.47;72.72;93066.16;2054718;69;20169;-74
2021/09/27 02:26:16;;;;;;;5.00;3.10;;;;;;;16.42;72.38;93062.41;2055578;69;20213;-74
2021/09/27 02:28:43;;;;;;;3.50;3.00;;;;;;;16.50;71.29;93059.19;2055323;69;20157;-74
2021/09/27 02:31:12;;;;;;;3.70;3.10;;;;;;;16.43;72.75;93065.97;2055390;69;20146;-74
2021/09/27 02:33:51;;;;;;;4.25;3.10;;;;;;;16.33;73.63;93060.56;2055286;69;20144;-74
2021/09/27 02:36:45;;;;;;;3.50;2.83;;;;;;;16.30;73.29;93058.28;2055490;69;20146;-74
2021/09/27 02:39:32;;;;;;;4.78;3.00;;;;;;;16.03;74.92;93054.22;2055078;70;20588;-74
2021/09/27 02:42:08;;;;;;;6.70;3.15;;;;;;;16.35;71.51;93057.81;2055332;69;20691;-74
2021/09/27 02:44:35;;;;;;;3.80;2.80;;;;;;;16.40;70.11;93053.03;2055475;69;20138;-74
2021/09/27 02:47:04;;;;;;;3.70;3.17;;;;;;;16.24;71.65;93053.06;2055298;69;20146;-74
2021/09/27 02:49:41;;;;;;;3.75;2.92;;;;;;;16.13;73.34;93048.28;2055334;69;20137;-74
2021/09/27 02:52:07;;;;;;;3.47;2.85;;;;;;;16.19;73.06;93045.72;2055357;69;20217;-74
2021/09/27 02:54:51;;;;;;;6.45;2.80;;;;;;;16.21;71.47;93043.69;2055181;69;20145;-74
2021/09/27 02:57:35;;;;;;;5.28;3.33;;;;;;;16.20;72.42;93052.88;2055443;69;20146;-74
2021/09/27 03:00:16;;;;;;;5.00;2.97;;;;;;;16.15;72.30;93042.69;2055235;69;20134;-74
2021/09/27 03:02:42;;;;;;;3.72;3.08;;;;;;;16.05;73.06;93051.47;2055295;69;20157;-74
2021/09/27 03:05:09;;;;;;;4.78;2.70;;;;;;;16.15;71.92;93045.53;2055410;69;20170;-74
2021/09/27 03:07:46;;;;;;;3.88;2.88;;;;;;;16.10;72.63;93044.63;2055258;69;20589;-74
2021/09/27 03:10:36;;;;;;;3.13;2.67;;;;;;;16.14;72.81;93047.66;2055111;69;20148;-74
2021/09/27 03:13:17;;;;;;;3.58;3.08;;;;;;;16.15;72.03;93039.84;2055231;69;20161;-74
2021/09/27 03:16:07;;;;;;;5.18;2.97;;;;;;;16.07;73.55;93039.47;2055221;69;20534;-74
2021/09/27 03:18:45;;;;;;;4.55;2.97;;;;;;;16.00;73.57;93041.31;2055245;69;20142;-75
2021/09/27 03:21:23;;;;;;;4.65;3.10;;;;;;;16.05;73.39;93039.41;2055339;69;20198;-75
2021/09/27 03:24:11;;;;;;;7.75;3.55;;;;;;;16.03;73.10;93037.19;2055121;69;20189;-74
2021/09/27 03:27:07;;;;;;;6.00;3.25;;;;;;;16.01;73.38;93043.50;2055263;69;20150;-74
2021/09/27 03:29:35;;;;;;;3.80;3.00;;;;;;;15.94;73.51;93043.84;2055363;69;20142;-75
2021/09/27 03:32:10;;;;;;;4.72;3.05;;;;;;;15.99;72.03;93048.38;2055212;69;20138;-74
2021/09/27 03:35:12;;;;;;;11.57;3.45;;;;;;;16.10;71.73;93046.72;2055159;69;20146;-74
2021/09/27 03:38:12;;;;;;;3.30;2.50;;;;;;;16.17;68.92;93054.13;2055261;69;20162;-74
2021/09/27 03:40:49;;;;;;;5.57;2.78;;;;;;;15.95;72.77;93051.03;2055271;69;20250;-74
2021/09/27 03:43:35;;;;;;;3.20;2.90;;;;;;;15.65;74.79;93044.63;2055209;69;20158;-74
2021/09/27 03:46:04;;;;;;;4.68;2.90;;;;;;;15.78;73.92;93046.69;2055067;70;20138;-74
2021/09/27 03:48:57;;;;;;;4.00;2.95;;;;;;;15.93;72.88;93048.06;2055289;69;20138;-75
2021/09/27 03:51:32;;;;;;;5.40;2.90;;;;;;;15.87;73.58;93042.13;2055113;69;20149;-73
2021/09/27 03:54:03;;;;;;;5.35;3.05;;;;;;;15.77;73.42;93036.72;2055139;69;20152;-74
2021/09/27 03:56:35;;;;;;;2.95;2.60;;;;;;;15.76;73.37;93040.91;2055180;69;20220;-74
2021/09/27 03:59:22;;;;;;;6.25;3.13;;;;;;;15.70;74.13;93038.50;2055120;69;20204;-74
2021/09/27 04:02:12;;;;;;;3.95;3.10;;;;;;;15.77;71.65;93045.22;2055207;69;20244;-74
2021/09/27 04:05:02;;;;;;;6.18;3.38;;;;;;;15.37;75.13;93039.03;2055251;69;20158;-74
2021/09/27 04:08:13;;;;;;;5.50;3.40;;;;;;;15.59;73.90;93041.50;2055124;69;20232;-74
2021/09/27 04:10:57;;;;;;;3.40;2.83;;;;;;;15.60;73.40;93042.94;2054695;70;20228;-74
2021/09/27 04:14:01;;;;;;;5.53;3.38;;;;;;;15.52;73.61;93040.44;2055087;69;20240;-74
2021/09/27 04:16:38;;;;;;;7.32;3.50;;;;;;;15.36;75.15;93039.69;2055106;69;20583;-74
2021/09/27 04:19:13;;;;;;;4.13;3.40;;;;;;;15.47;73.51;93045.19;2055183;69;20585;-74
2021/09/27 04:22:16;;;;;;;9.73;5.13;;;;;;;15.55;72.96;93049.81;2055151;69;20169;-74
2021/09/27 04:25:19;;;;;;;6.63;4.22;;;;;;;15.57;74.17;93050.63;2054161;69;20153;-74
2021/09/27 04:28:05;;;;;;;6.32;3.97;;;;;;;15.65;73.22;93047.47;2055112;69;20158;-74
2021/09/27 04:30:49;;;;;;;5.20;3.70;;;;;;;15.59;74.26;93039.38;2055227;69;20239;-74
2021/09/27 04:33:40;;;;;;;6.15;3.88;;;;;;;15.61;73.12;93041.56;2055045;69;20149;-74
2021/09/27 04:36:22;;;;;;;9.60;4.55;;;;;;;15.77;71.97;93041.66;2055215;69;20221;-74
2021/09/27 04:38:52;;;;;;;6.35;4.70;;;;;;;15.71;73.30;93044.91;2055028;69;20142;-74
2021/09/27 04:41:38;;;;;;;5.38;3.90;;;;;;;15.62;74.16;93054.38;2055107;69;20221;-74
2021/09/27 04:44:25;;;;;;;4.68;3.70;;;;;;;15.65;74.12;93056.00;2055192;69;20142;-74
2021/09/27 04:47:06;;;;;;;6.28;3.80;;;;;;;15.61;73.48;93059.34;2055011;69;20156;-74
2021/09/27 04:49:38;;;;;;;5.05;3.50;;;;;;;15.70;73.35;93057.66;2055075;69;20153;-75
2021/09/27 04:52:25;;;;;;;7.30;4.13;;;;;;;15.59;74.29;93053.56;2054957;69;20148;-74
2021/09/27 04:55:03;;;;;;;8.18;3.80;;;;;;;15.65;74.19;93045.38;2054929;69;20212;-75
2021/09/27 04:57:34;;;;;;;6.10;3.55;;;;;;;15.61;74.06;93050.81;2055093;69;20249;-74
2021/09/27 05:00:35;;;;;;;5.32;3.55;;;;;;;15.63;74.22;93058.72;2054959;69;20141;-74
2021/09/27 05:03:32;;;;;;;5.63;3.85;;;;;;;15.65;73.91;93058.81;2051219;69;20150;-74
2021/09/27 05:06:07;;;;;;;5.60;3.28;;;;;;;15.65;74.20;93056.72;2054970;69;20146;-74
2021/09/27 05:09:05;;;;;;;4.72;3.70;;;;;;;15.64;74.07;93055.25;2054882;69;20172;-75
2021/09/27 05:11:54;;;;;;;4.38;3.70;;;;;;;15.68;73.75;93051.88;2050888;69;20142;-74
2021/09/27 05:14:46;;;;;;;6.40;4.25;;;;;;;15.64;73.28;93057.38;2055064;69;20177;-74
2021/09/27 05:17:46;;;;;;;11.65;4.55;;;;;;;15.70;72.72;93055.53;2054575;70;20138;-74
2021/09/27 05:20:36;;;;;;;6.80;4.03;;;;;;;15.84;72.18;93055.47;2055048;69;20150;-75
2021/09/27 05:23:14;;;;;;;6.78;3.88;;;;;;;15.72;73.83;93063.44;2054954;69;20126;-75
2021/09/27 05:25:51;;;;;;;5.93;4.60;;;;;;;15.80;72.83;93063.06;2055045;69;20150;-75
2021/09/27 05:28:26;;;;;;;7.78;5.18;;;;;;;15.76;73.12;93055.13;2055080;69;20150;-75
2021/09/27 05:31:13;;;;;;;7.80;4.97;;;;;;;15.94;71.01;93058.06;2054899;70;20518;-75
2021/09/27 05:34:08;;;;;;;12.27;6.10;;;;;;;15.97;72.11;93053.94;2055028;69;20223;-76
2021/09/27 05:37:18;;;;;;;13.93;6.72;;;;;;;15.82;74.02;93060.34;2054981;69;20185;-75
2021/09/27 05:40:16;;;;;;;6.28;4.50;;;;;;;15.91;72.89;93059.34;2047590;70;20135;-75
2021/09/27 05:42:49;;;;;;;11.30;5.57;;;;;;;15.88;72.86;93061.34;2037871;70;20284;-75
2021/09/27 05:45:18;;;;;;;8.25;5.38;;;;;;;15.89;73.60;93068.47;2042902;70;20167;-75
2021/09/27 05:47:59;;;;;;;9.18;5.90;;;;;;;15.89;72.86;93068.47;2044450;70;20186;-75
2021/09/27 05:50:27;;;;;;;6.90;5.30;;;;;;;15.93;70.67;93071.53;2044409;70;20227;-75
2021/09/27 05:53:22;;;;;;;7.80;5.97;;;;;;;15.97;71.76;93065.31;2044354;70;20146;-75
2021/09/27 05:55:51;;;;;;;8.57;5.82;;;;;;;16.00;71.81;93078.22;2044406;70;20143;-75
2021/09/27 05:58:16;;;;;;;6.97;5.80;;;;;;;16.02;72.71;93073.38;2044316;70;20150;-75
2021/09/27 06:00:44;;;;;;;8.88;6.10;;;;;;;15.65;74.51;93073.03;2044358;70;20146;-75
2021/09/27 06:03:41;;;;;;;11.57;6.63;;;;;;;15.86;74.26;93077.56;2044306;70;20583;-75
2021/09/27 06:06:28;;;;;;;12.07;6.07;;;;;;;15.97;73.53;93076.66;2044449;70;20135;-75
2021/09/27 06:08:59;;;;;;;10.80;7.28;;;;;;;15.93;73.93;93076.47;2044222;70;20151;-75
2021/09/27 06:11:35;;;;;;;10.07;6.43;;;;;;;15.97;72.75;93076.66;2044430;70;20139;-75
2021/09/27 06:14:01;;;;;;;9.43;6.35;;;;;;;16.13;72.75;93073.84;2044396;70;20495;-75
2021/09/27 06:16:47;;;;;;;9.65;6.35;;;;;;;16.18;72.02;93075.50;2044351;70;20170;-76
2021/09/27 06:19:22;;;;;;;10.45;5.82;;;;;;;16.26;72.37;93073.78;2048164;70;20146;-76
2021/09/27 06:22:06;;;;;;;9.90;6.30;;;;;;;16.25;73.08;93077.97;2055379;69;20164;-75
2021/09/27 06:24:53;;;;;;;9.40;6.15;;;;;;;16.39;70.01;93071.47;2055257;69;20142;-75
2021/09/27 06:27:27;;;;;;;8.80;5.07;;;;;;;16.38;73.05;93079.25;2054788;69;20193;-76
2021/09/27 06:30:21;;;;;;;6.53;4.75;;;;;;;16.36;71.72;93070.66;2055332;69;20616;-77
2021/09/27 06:32:51;;;;;;;11.20;6.40;;;;;;;16.10;74.99;93069.44;2055396;69;20138;-76
2021/09/27 06:35:22;;;;;;;8.95;6.75;;;;;;;16.05;75.12;93067.78;2055303;69;20153;-76
2021/09/27 06:37:49;;;;;;;12.02;8.77;;;;;;;16.40;72.71;93067.25;2055476;69;20138;-75
2021/09/27 06:40:15;;;;;;;6.50;5.07;;;;;;;16.27;71.89;93066.72;2055157;69;20654;-76
2021/09/27 06:42:41;;;;;;;6.18;4.55;;;;;;;16.04;75.03;93069.16;2055409;69;20142;-76
2021/09/27 06:45:07;;;;;;;8.32;4.90;;;;;;;16.29;71.48;93071.00;2055418;69;20164;-76
2021/09/27 06:47:33;;;;;;;9.65;4.75;;;;;;;16.26;72.60;93073.00;2055374;69;20526;-76
2021/09/27 06:50:00;;;;;;;8.32;5.13;;;;;;;16.18;75.68;93070.56;2055368;69;20183;-76
2021/09/27 06:52:26;;;;;;;9.85;4.97;;;;;;;16.57;71.29;93071.56;2055092;69;20138;-76
2021/09/27 06:54:52;;;;;;;8.27;5.38;;;;;;;16.62;71.58;93064.66;2055195;69;20262;-76
2021/09/27 06:57:18;;;;;;;8.45;5.80;;;;;;;16.30;75.17;93064.69;2054707;69;20244;-76
2021/09/27 06:59:43;;;;;;;13.15;5.97;;;;;;;16.37;74.38;93063.59;2055204;69;20138;-76
2021/09/27 07:02:09;;;;;;;8.32;6.00;;;;;;;16.44;72.29;93061.75;2055227;69;20515;-76
2021/09/27 07:04:34;;;;;;;8.73;6.30;;;;;;;16.27;72.87;93072.41;2055237;69;20138;-75
2021/09/27 07:07:01;;;;;;;8.95;5.90;;;;;;;16.65;72.06;93069.81;2055317;69;20193;-75
2021/09/27 07:09:28;;;;;;;7.57;5.63;;;;;;;16.92;68.37;93059.63;2055206;69;20606;-76
2021/09/27 07:11:54;;;;;;;6.68;5.63;;;;;;;17.07;71.33;93066.63;2055333;69;20138;-76
2021/09/27 07:14:20;;;;;;;7.35;5.93;;;;;;;16.99;70.22;93072.69;2055207;69;20208;-76
2021/09/27 07:16:45;;;;;;;9.05;6.25;;;;;;;17.15;69.01;93067.00;2055346;69;20185;-74
2021/09/27 07:19:11;;;;;;;11.80;7.43;;;;;;;16.86;71.95;93068.63;2055254;69;20157;-73
2021/09/27 07:21:39;;;;;;;9.93;7.50;;;;;;;17.03;68.60;93065.09;2055324;69;20610;-74
2021/09/27 07:24:06;;;;;;;10.13;7.72;;;;;;;17.11;71.72;93070.38;2055106;69;20153;-73
2021/09/27 07:26:33;;;;;;;12.00;8.43;;;;;;;17.18;71.58;93077.81;2055156;69;20541;-74
2021/09/27 07:28:59;;;;;;;9.77;7.43;;;;;;;17.25;70.22;93068.13;2055198;69;20192;-73
2021/09/27 07:31:27;;;;;;;10.82;8.02;;;;;;;16.91;69.26;93073.09;2055153;69;20201;-73
2021/09/27 07:33:54;;;;;;;11.52;8.63;;;;;;;16.71;71.16;93075.75;2055203;69;20153;-73
2021/09/27 07:36:19;;;;;;;10.95;9.10;;;;;;;16.44;73.81;93067.44;2055206;69;20170;-73
2021/09/27 07:38:45;;;;;;;12.35;8.80;;;;;;;17.05;70.10;93063.72;2055235;69;20145;-73
2021/09/27 07:41:11;;;;;;;9.38;8.30;;;;;;;16.88;71.54;93071.53;2055219;69;20152;-73
2021/09/27 07:43:37;;;;;;;12.88;8.77;;;;;;;16.69;72.41;93063.56;2055150;69;20205;-73
2021/09/27 07:46:03;;;;;;;10.52;8.35;;;;;;;16.85;71.73;93064.28;2055154;69;20154;-73
2021/09/27 07:48:28;;;;;;;10.55;8.70;;;;;;;16.85;71.17;93067.13;2055162;69;20222;-74
2021/09/27 07:50:55;;;;;;;9.98;8.50;;;;;;;16.84;70.01;93065.69;2055054;69;20186;-75
2021/09/27 07:53:23;;;;;;;10.80;8.75;;;;;;;16.67;71.68;93060.63;2055043;69;20297;-75
2021/09/27 07:55:49;;;;;;;12.68;9.23;;;;;;;16.72;72.31;93065.91;2055180;69;20613;-75
2021/09/27 07:58:17;;;;;;;11.63;8.98;;;;;;;17.02;70.17;93072.16;2055117;69;20142;-76
2021/09/27 08:00:45;;;;;;;12.35;8.57;;;;;;;17.15;69.33;93076.25;2055069;69;20611;-74
2021/09/27 08:03:10;;;;;;;13.48;8.80;;;;;;;17.42;68.61;93074.53;2054833;69;20150;-76
2021/09/27 08:05:38;;;;;;;10.55;8.25;;;;;;;17.61;67.42;93073.16;2055225;69;20153;-75
2021/09/27 08:08:04;;;;;;;11.68;8.68;;;;;;;17.28;69.03;93066.13;2055111;69;20157;-75
2021/09/27 08:10:31;;;;;;;10.07;8.43;;;;;;;17.60;68.27;93066.00;2055027;69;20169;-76
2021/09/27 08:12:57;;;;;;;9.85;7.80;;;;;;;17.90;65.75;93064.38;2055097;69;20138;-76
2021/09/27 08:15:27;;;;;;;10.70;8.35;;;;;;;18.10;65.67;93067.31;2055105;69;20161;-76
2021/09/27 08:17:53;;;;;;;10.23;8.23;;;;;;;18.23;64.63;93059.94;2055091;69;20138;-77
2021/09/27 08:20:23;;;;;;;10.55;8.35;;;;;;;18.18;65.21;93059.06;2055157;69;20166;-77
2021/09/27 08:22:50;;;;;;;9.75;8.38;;;;;;;18.21;65.41;93062.72;2055136;69;20166;-76
2021/09/27 08:25:17;;;;;;;10.57;7.80;;;;;;;18.22;63.51;93056.34;2054968;69;20142;-75
2021/09/27 08:27:45;;;;;;;8.82;7.80;;;;;;;18.09;64.96;93045.16;2055093;69;20275;-74
2021/09/27 08:30:18;;;;;;;10.13;7.45;;;;;;;17.77;67.15;93046.06;2055084;69;20188;-75
2021/09/27 08:32:45;;;;;;;9.00;7.75;;;;;;;17.74;67.14;93044.53;2055072;69;20150;-74
2021/09/27 08:35:12;;;;;;;10.07;7.85;;;;;;;18.21;66.18;93037.06;2055001;69;20247;-74
2021/09/27 08:37:38;;;;;;;8.82;7.68;;;;;;;17.92;66.49;93035.25;2055017;69;20145;-74
2021/09/27 08:40:04;;;;;;;9.32;7.65;;;;;;;17.94;67.74;93030.38;2054891;69;20154;-74
2021/09/27 08:42:38;;;;;;;11.82;9.27;;;;;;;18.29;67.60;93035.25;2055038;69;20153;-74
2021/09/27 08:45:11;;;;;;;11.73;8.98;;;;;;;18.54;65.61;93034.03;2055186;69;20161;-75
2021/09/27 08:47:53;;;;;;;10.70;8.52;;;;;;;18.88;66.95;93031.00;2055066;69;20169;-73
2021/09/27 08:50:37;;;;;;;13.02;8.27;;;;;;;19.38;65.56;93034.13;2055153;69;20169;-72
2021/09/27 08:53:22;;;;;;;15.45;7.88;;;;;;;20.15;62.69;93029.44;2055052;69;20142;-72
2021/09/27 08:55:49;;;;;;;10.43;8.25;;;;;;;20.54;62.13;93039.94;2055099;69;20166;-73
2021/09/27 08:58:33;;;;;;;10.32;7.53;;;;;;;20.74;59.89;93046.22;2055139;69;20606;-72
2021/09/27 09:01:15;;;;;;;11.40;7.03;;;;;;;20.92;59.27;93037.44;2054942;69;20161;-72
2021/09/27 09:03:53;;;;;;;9.98;8.32;;;;;;;19.72;59.48;93037.41;2055300;69;20177;-74
2021/09/27 09:06:45;;;;;;;10.10;7.63;;;;;;;20.20;59.05;93037.47;2054975;69;20150;-72
2021/09/27 09:09:23;;;;;;;9.00;7.35;;;;;;;20.31;58.81;93036.38;2054871;69;20154;-72
2021/09/27 09:12:03;;;;;;;10.60;7.25;;;;;;;20.64;58.19;93042.34;2055067;69;20174;-73
2021/09/27 09:14:44;;;;;;;8.57;7.22;;;;;;;20.78;58.33;93037.03;2055075;69;20244;-73
2021/09/27 09:17:31;;;;;;;8.73;6.97;;;;;;;20.84;57.57;93033.59;2055545;69;20157;-73
2021/09/27 09:19:59;;;;;;;8.70;6.97;;;;;;;20.83;56.67;93037.88;2055478;69;20138;-73
2021/09/27 09:22:30;;;;;;;7.88;6.70;;;;;;;20.95;56.90;93036.09;2054941;69;20177;-73
2021/09/27 09:24:56;;;;;;;12.23;6.80;;;;;;;21.12;55.90;93034.41;2055393;69;20635;-73
2021/09/27 09:27:23;;;;;;;7.20;6.15;;;;;;;21.08;54.85;93028.56;2055425;69;20154;-73
2021/09/27 09:29:48;;;;;;;6.70;5.93;;;;;;;21.03;55.81;93019.16;2055505;69;20153;-73
2021/09/27 09:32:25;;;;;;;6.95;6.25;;;;;;;20.32;56.33;93014.25;2055543;69;20165;-73
2021/09/27 09:35:11;;;;;;;6.82;6.13;;;;;;;20.38;55.86;93017.28;2054844;69;20552;-73
2021/09/27 09:37:40;;;;;;;6.93;5.97;;;;;;;21.20;55.33;93025.28;2055440;69;20153;-74
2021/09/27 09:40:21;;;;;;;6.68;5.97;;;;;;;21.62;55.43;93028.53;2055280;69;20142;-73
2021/09/27 09:43:05;;;;;;;7.20;6.50;;;;;;;22.30;53.97;93025.88;2055402;69;20153;-74
2021/09/27 09:45:35;;;;;;;6.85;6.15;;;;;;;23.10;53.04;93021.09;2055404;69;20150;-73
2021/09/27 09:48:38;;;;;;;6.40;5.80;;;;;;;22.94;50.25;93027.97;2055389;69;20149;-73
2021/09/27 09:51:26;;;;;;;6.18;5.55;;;;;;;23.66;49.48;93023.56;2047871;70;20647;-74
2021/09/27 09:54:22;;;;;;;6.30;5.68;;;;;;;23.40;47.97;93030.25;2054976;69;20522;-74
2021/09/27 09:57:20;;;;;;;9.40;5.43;;;;;;;23.88;47.41;93026.81;2055160;70;20613;-74
2021/09/27 10:00:02;;;;;;;5.80;5.30;;;;;;;24.16;46.50;93022.94;2055501;69;20157;-74
2021/09/27 10:02:37;;;;;;;5.72;5.20;;;;;;;24.77;45.95;93018.06;2055387;69;20541;-74
2021/09/27 10:05:24;;;;;;;5.78;5.28;;;;;;;25.18;44.38;93012.81;2055407;69;20153;-74
2021/09/27 10:07:57;;;;;;;5.45;4.95;;;;;;;25.39;43.63;93008.72;2055545;69;20150;-74
2021/09/27 10:10:28;;;;;;;5.88;5.28;;;;;;;24.89;45.40;93005.97;2055252;69;20170;-74
2021/09/27 10:12:54;;;;;;;5.50;5.00;;;;;;;25.17;44.02;93003.44;2055355;69;20188;-74
2021/09/27 10:15:34;;;;;;;7.05;5.53;;;;;;;25.50;42.81;92998.03;2055353;69;20209;-74
2021/09/27 10:18:22;;;;;;;6.10;5.00;;;;;;;25.60;42.44;92990.19;2055341;69;20174;-75
2021/09/27 10:21:03;;;;;;;5.43;4.93;;;;;;;25.64;42.57;92983.75;2055412;69;20150;-75
2021/09/27 10:23:45;;;;;;;5.72;4.97;;;;;;;25.90;41.78;92982.56;2055394;69;20614;-75
2021/09/27 10:26:19;;;;;;;6.75;4.93;;;;;;;26.60;40.11;92979.41;2055142;69;20138;-74
2021/09/27 10:28:48;;;;;;;6.75;5.28;;;;;;;26.84;39.49;92984.59;2055322;69;20526;-75
2021/09/27 10:31:14;;;;;;;5.53;5.03;;;;;;;27.53;39.03;92978.31;2055289;69;20150;-75
2021/09/27 10:33:46;;;;;;;6.32;5.18;;;;;;;27.67;36.97;92977.59;2054317;69;20254;-74
2021/09/27 10:36:20;;;;;;;5.00;4.60;;;;;;;29.20;37.06;92962.94;2054438;69;20511;-75
2021/09/27 10:38:53;;;;;;;6.28;4.80;;;;;;;29.29;36.21;92981.72;2054349;69;20169;-74
2021/09/27 10:41:38;;;;;;;5.10;4.60;;;;;;;29.50;35.79;92976.53;2054058;69;20157;-75
2021/09/27 10:44:16;;;;;;;6.07;3.92;;;;;;;29.71;34.73;92980.06;2055083;69;20134;-75
2021/09/27 10:46:47;;;;;;;4.43;4.03;;;;;;;30.26;33.89;92981.84;2055063;69;20151;-76
2021/09/27 10:49:33;;;;;;;4.22;3.90;;;;;;;29.79;33.29;92982.91;2056448;69;20157;-75
2021/09/27 10:52:55;;;;;;;4.10;3.70;;;;;;;31.58;31.10;92980.41;2058482;69;20152;-75
2021/09/27 10:55:34;;;;;;;4.38;3.83;;;;;;;31.92;31.03;92981.38;2050538;70;20150;-75
2021/09/27 10:58:04;;;;;;;6.30;3.60;;;;;;;32.27;29.46;92981.56;2050756;70;20158;-76
2021/09/27 11:00:47;;;;;;;4.18;3.85;;;;;;;32.92;29.42;92976.81;2050706;70;20189;-76
2021/09/27 11:03:39;;;;;;;4.30;4.00;;;;;;;34.09;26.97;92975.81;2050718;70;20318;-77
2021/09/27 11:06:35;;;;;;;3.70;3.40;;;;;;;35.99;25.89;92972.94;2050826;70;20185;-76
2021/09/27 11:09:13;;;;;;;4.03;3.63;;;;;;;34.20;26.24;92972.66;2050468;70;20141;-76
2021/09/27 11:11:46;;;;;;;4.13;3.78;;;;;;;33.78;27.31;92969.22;2050639;70;20149;-77
2021/09/27 11:14:34;;;;;;;4.30;3.47;;;;;;;33.60;27.82;92979.09;2050696;70;20151;-77
2021/09/27 11:17:32;;;;;;;4.28;3.40;;;;;;;34.37;25.81;92977.31;2050683;70;20246;-77
2021/09/27 11:20:12;;;;;;;3.60;3.30;;;;;;;36.09;25.26;92960.88;2050684;70;20156;-77
2021/09/27 11:22:43;;;;;;;6.70;3.35;;;;;;;36.22;24.96;92961.94;2050739;70;20149;-74
2021/09/27 11:25:21;;;;;;;3.90;3.50;;;;;;;37.33;24.32;92965.47;2047454;70;20267;-75
2021/09/27 11:28:04;;;;;;;3.70;3.40;;;;;;;37.87;22.53;92956.16;2050134;70;20535;-74
2021/09/27 11:30:44;;;;;;;4.72;3.33;;;;;;;38.83;22.84;92955.25;2053862;69;20185;-75
2021/09/27 11:33:39;;;;;;;3.67;3.38;;;;;;;38.14;23.10;92955.13;2058448;69;20600;-75
2021/09/27 11:36:26;;;;;;;3.70;3.10;;;;;;;39.24;21.74;92952.78;2058601;69;20146;-74
2021/09/27 11:39:16;;;;;;;3.85;3.55;;;;;;;35.17;23.99;92940.16;2054362;69;20221;-73
2021/09/27 11:42:20;;;;;;;3.90;3.60;;;;;;;35.50;23.84;92939.25;2058460;69;20149;-73
2021/09/27 11:44:54;;;;;;;3.28;3.08;;;;;;;37.09;23.11;92943.59;2058095;69;20518;-73
2021/09/27 11:47:42;;;;;;;3.67;3.38;;;;;;;38.40;21.98;92950.44;2058556;69;20149;-73
2021/09/27 11:50:49;;;;;;;3.97;3.40;;;;;;;39.00;22.02;92942.78;2058519;69;20156;-73
2021/09/27 11:53:36;;;;;;;3.83;2.95;;;;;;;37.13;22.24;92934.66;2058531;69;20145;-73
2021/09/27 11:56:22;;;;;;;4.40;3.00;;;;;;;38.09;21.13;92945.03;2058636;69;20674;-73
2021/09/27 11:58:54;;;;;;;3.35;3.05;;;;;;;39.51;20.40;92946.44;2058602;69;20156;-74
2021/09/27 12:01:36;;;;;;;3.60;3.30;;;;;;;40.01;19.92;92937.47;2058541;69;20605;-74
2021/09/27 12:04:39;;;;;;;3.28;3.00;;;;;;;39.67;18.94;92933.91;2057933;69;20148;-73
2021/09/27 12:07:11;;;;;;;3.50;3.20;;;;;;;39.10;19.74;92927.63;2058610;69;20180;-73
2021/09/27 12:09:52;;;;;;;3.60;3.30;;;;;;;40.01;18.76;92936.78;2058417;69;20501;-73
2021/09/27 12:12:27;;;;;;;3.40;3.13;;;;;;;40.63;20.07;92927.09;2058511;69;20146;-73
2021/09/27 12:14:56;;;;;;;2.90;2.70;;;;;;;39.52;19.89;92927.25;2058413;69;20158;-73
2021/09/27 12:17:30;;;;;;;3.20;2.90;;;;;;;40.81;19.14;92915.91;2058500;69;20256;-72
2021/09/27 12:20:12;;;;;;;3.58;3.33;;;;;;;37.86;20.48;92916.53;2058447;69;20204;-73